Time;durP1;ratioP1;P1;durP2;ratioP2;P2;SDS_P1;SDS_P2;PMS_P1;PMS_P2;Temp;Humidity;BMP_temperature;BMP_pressure;BME280_temperature;BME280_humidity;BME280_pressure;Samples;Min_cycle;Max_cycle;Signal;HPM_P1;HPM_P2
2023/01/28 00:02:19;;;;;;;;;;;;;;;;;;4921497;29;19923;-94
2023/01/28 00:05:06;;;;;;;;;;;;;;;;;;4920119;29;19998;-94
2023/01/28 00:07:40;;;;;;;;;;;;;;;;;;4920612;29;20434;-95
2023/01/28 00:10:09;;;;;;;;;;;;;;;;;;4905282;29;20054;-93
2023/01/28 00:12:52;;;;;;;;;;;;;;;;;;4921023;29;20204;-95
2023/01/28 00:15:24;;;;;;;;;;;;;;;;;;4921398;29;19923;-95
2023/01/28 00:17:50;;;;;;;;;;;;;;;;;;4904869;29;19923;-94
2023/01/28 00:20:16;;;;;;;;;;;;;;;;;;4921147;29;20367;-95
2023/01/28 00:22:42;;;;;;;;;;;;;;;;;;4904997;29;19926;-94
2023/01/28 00:25:08;;;;;;;;;;;;;;;;;;4905018;29;19980;-92
2023/01/28 00:27:34;;;;;;;;;;;;;;;;;;4904718;29;19933;-93
2023/01/28 00:30:09;;;;;;;;;;;;;;;;;;4904899;29;19986;-94
2023/01/28 00:32:35;;;;;;;;;;;;;;;;;;4904356;29;19973;-93
2023/01/28 00:35:04;;;;;;;;;;;;;;;;;;4904960;29;20319;-93
2023/01/28 00:37:32;;;;;;;;;;;;;;;;;;4904722;29;19930;-94
2023/01/28 00:39:58;;;;;;;;;;;;;;;;;;4904834;29;19934;-93
2023/01/28 00:42:24;;;;;;;;;;;;;;;;;;4920469;29;19927;-93
2023/01/28 00:44:50;;;;;;;;;;;;;;;;;;4904592;29;20161;-93
2023/01/28 00:50:26;;;;;;;;;;;;;;;;;;4934202;29;19923;-95
2023/01/28 00:53:09;;;;;;;;;;;;;;;;;;;;;
2023/01/28 00:55:53;;;;;;;;;;;;;;;;;;4920237;29;19942;-94
2023/01/28 01:12:27;;;;;;;;;;;;;;;;;;4915158;29;19966;-93
2023/01/28 01:15:06;;;;;;;;;;;;;;;;;;;;;
2023/01/28 01:17:53;;;;;;;;;;;;;;;;;;4919069;29;19930;-92
2023/01/28 01:20:21;;;;;;;;;;;;;;;;;;4919446;29;19923;-94
2023/01/28 01:25:54;;;;;;;;;;;;;;;;;;4881076;29;19923;-92
2023/01/28 01:31:08;;;;;;;;;;;;;;;;;;4919692;29;20334;-94
2023/01/28 01:33:39;;;;;;;;;;;;;;;;;;4904678;29;19927;-95
2023/01/28 01:36:26;;;;;;;;;;;;;;;;;;4903430;29;19926;-93
2023/01/28 01:38:57;;;;;;;;;;;;;;;;;;4919111;29;19985;-95
2023/01/28 01:41:47;;;;;;;;;;;;;;;;;;4903979;29;19923;-94
2023/01/28 01:47:01;;;;;;;;;;;;;;;;;;4900734;29;20382;-92
2023/01/28 01:49:51;;;;;;;;;;;;;;;;;;4903646;29;19922;-94
2023/01/28 01:52:25;;;;;;;;;;;;;;;;;;4919754;29;19981;-94
2023/01/28 01:54:59;;;;;;;;;;;;;;;;;;4919338;29;19934;-93
2023/01/28 01:57:31;;;;;;;;;;;;;;;;;;4904091;29;19923;-94
2023/01/28 02:00:04;;;;;;;;;;;;;;;;;;4901833;29;20021;-93
2023/01/28 02:02:33;;;;;;;;;;;;;;;;;;4919573;29;19923;-92
2023/01/28 02:07:47;;;;;;;;;;;;;;;;;;4912000;29;20056;-95
2023/01/28 02:10:24;;;;;;;;;;;;;;;;;;;;;
2023/01/28 02:13:03;;;;;;;;;;;;;;;;;;;;;
2023/01/28 02:15:42;;;;;;;;;;;;;;;;;;;;;
2023/01/28 02:18:15;;;;;;;;;;;;;;;;;;4918846;29;19923;-95
2023/01/28 03:37:46;;;;;;;;;;;;;;;;;;4921728;29;19989;-93
2023/01/28 03:40:20;;;;;;;;;;;;;;;;;;4921322;29;20023;-92
2023/01/28 03:42:55;;;;;;;;;;;;;;;;;;;;;
2023/01/28 03:48:16;;;;;;;;;;;;;;;;;;4918030;29;19952;-94
2023/01/28 03:50:45;;;;;;;;;;;;;;;;;;4921720;29;19929;-94
2023/01/28 03:53:21;;;;;;;;;;;;;;;;;;;;;
2023/01/28 03:56:17;;;;;;;;;;;;;;;;;;4922141;29;19922;-95
2023/01/28 03:58:51;;;;;;;;;;;;;;;;;;4920590;29;20335;-92
2023/01/28 04:01:17;;;;;;;;;;;;;;;;;;4905999;29;20331;-94
2023/01/28 04:03:43;;;;;;;;;;;;;;;;;;4905638;29;20355;-92
2023/01/28 04:06:09;;;;;;;;;;;;;;;;;;4921333;29;19968;-93
2023/01/28 04:08:38;;;;;;;;;;;;;;;;;;4905607;29;19926;-94
2023/01/28 04:11:18;;;;;;;;;;;;;;;;;;4905551;29;19922;-94
2023/01/28 04:13:44;;;;;;;;;;;;;;;;;;4921392;29;20371;-93
2023/01/28 04:16:10;;;;;;;;;;;;;;;;;;4921660;29;19966;-95
2023/01/28 04:18:38;;;;;;;;;;;;;;;;;;4921208;29;19927;-94
2023/01/28 04:21:04;;;;;;;;;;;;;;;;;;4905571;29;19922;-92
2023/01/28 04:23:30;;;;;;;;;;;;;;;;;;4905783;29;20374;-92
2023/01/28 04:25:56;;;;;;;;;;;;;;;;;;4905381;29;20323;-92
2023/01/28 04:28:24;;;;;;;;;;;;;;;;;;4908008;29;21667;-95
2023/01/28 04:30:50;;;;;;;;;;;;;;;;;;4906549;29;20018;-94
2023/01/28 04:33:19;;;;;;;;;;;;;;;;;;4921078;29;19927;-94
2023/01/28 04:35:48;;;;;;;;;;;;;;;;;;4905285;29;19934;-94
2023/01/28 04:38:21;;;;;;;;;;;;;;;;;;4904953;29;19929;-93
2023/01/28 04:40:52;;;;;;;;;;;;;;;;;;4921420;29;20426;-93
2023/01/28 04:43:21;;;;;;;;;;;;;;;;;;4920790;29;19922;-93
2023/01/28 04:45:49;;;;;;;;;;;;;;;;;;4921074;29;20346;-93
2023/01/28 04:48:23;;;;;;;;;;;;;;;;;;4904968;29;20011;-93
2023/01/28 04:50:49;;;;;;;;;;;;;;;;;;4919952;29;19930;-91
2023/01/28 04:53:15;;;;;;;;;;;;;;;;;;4920653;29;19923;-93
2023/01/28 04:55:41;;;;;;;;;;;;;;;;;;4920715;29;19981;-94
2023/01/28 04:58:07;;;;;;;;;;;;;;;;;;4920526;29;19923;-94
2023/01/28 05:00:33;;;;;;;;;;;;;;;;;;4904703;29;19923;-95
2023/01/28 05:02:58;;;;;;;;;;;;;;;;;;4920107;29;19927;-94
2023/01/28 05:05:24;;;;;;;;;;;;;;;;;;4904501;29;19978;-93
2023/01/28 05:07:50;;;;;;;;;;;;;;;;;;4904185;29;19930;-94
2023/01/28 05:10:18;;;;;;;;;;;;;;;;;;4920359;29;19923;-93
2023/01/28 05:12:44;;;;;;;;;;;;;;;;;;4904498;29;20025;-94
2023/01/28 05:15:10;;;;;;;;;;;;;;;;;;4904359;29;20374;-93
2023/01/28 05:17:36;;;;;;;;;;;;;;;;;;4919989;29;20296;-93
2023/01/28 05:20:04;;;;;;;;;;;;;;;;;;4920044;29;19923;-95
2023/01/28 05:22:30;;;;;;;;;;;;;;;;;;4920089;29;20389;-91
2023/01/28 05:24:56;;;;;;;;;;;;;;;;;;4919975;29;19923;-93
2023/01/28 05:27:22;;;;;;;;;;;;;;;;;;4920045;29;20448;-93
2023/01/28 05:29:48;;;;;;;;;;;;;;;;;;4904244;29;20243;-93
2023/01/28 05:32:14;;;;;;;;;;;;;;;;;;4904275;29;19923;-93
2023/01/28 05:34:40;;;;;;;;;;;;;;;;;;4903802;29;20017;-94
2023/01/28 05:37:06;;;;;;;;;;;;;;;;;;4904119;29;19927;-94
2023/01/28 05:39:31;;;;;;;;;;;;;;;;;;4919762;29;19974;-93
2023/01/28 05:41:57;;;;;;;;;;;;;;;;;;4904155;29;20251;-94
2023/01/28 05:44:26;;;;;;;;;;;;;;;;;;4904350;29;20010;-93
2023/01/28 05:46:55;;;;;;;;;;;;;;;;;;4919562;29;19931;-93
2023/01/28 05:49:21;;;;;;;;;;;;;;;;;;4903589;29;19962;-92
2023/01/28 05:51:47;;;;;;;;;;;;;;;;;;4919643;29;19923;-93
2023/01/28 05:54:13;;;;;;;;;;;;;;;;;;4919630;29;19923;-93
2023/01/28 05:56:39;;;;;;;;;;;;;;;;;;4903854;29;20243;-94
2023/01/28 05:59:05;;;;;;;;;;;;;;;;;;4919486;29;20409;-93
2023/01/28 06:01:31;;;;;;;;;;;;;;;;;;4919489;29;19923;-94
2023/01/28 06:03:59;;;;;;;;;;;;;;;;;;4904019;29;20010;-93
2023/01/28 06:06:25;;;;;;;;;;;;;;;;;;4903912;29;20096;-93
2023/01/28 06:08:51;;;;;;;;;;;;;;;;;;4919624;29;19940;-94
2023/01/28 06:11:19;;;;;;;;;;;;;;;;;;4919553;29;19937;-94
2023/01/28 06:13:45;;;;;;;;;;;;;;;;;;4919585;29;19974;-94
2023/01/28 06:16:11;;;;;;;;;;;;;;;;;;4919493;29;20351;-89
2023/01/28 06:18:37;;;;;;;;;;;;;;;;;;4903636;29;19923;-93
2023/01/28 06:21:03;;;;;;;;;;;;;;;;;;4919381;29;19926;-95
2023/01/28 06:23:29;;;;;;;;;;;;;;;;;;4903577;29;19927;-94
2023/01/28 06:25:57;;;;;;;;;;;;;;;;;;4919104;29;19929;-94
2023/01/28 06:28:31;;;;;;;;;;;;;;;;;;4903363;29;20101;-92
2023/01/28 06:30:59;;;;;;;;;;;;;;;;;;4919065;29;19923;-93
2023/01/28 06:33:28;;;;;;;;;;;;;;;;;;4903495;29;20276;-94
2023/01/28 06:35:54;;;;;;;;;;;;;;;;;;4903314;29;19927;-95
2023/01/28 06:38:20;;;;;;;;;;;;;;;;;;4920199;29;19922;-93
2023/01/28 06:41:38;;;;;;;;;;;;;;;;;;;;;
2023/01/28 06:44:15;;;;;;;;;;;;;;;;;;;;;
2023/01/28 06:57:32;;;;;;;;;;;;;;;;;;4953214;28;20295;-93
2023/01/28 07:00:00;;;;;;;;;;;;;;;;;;4922033;29;20016;-93
2023/01/28 07:05:35;;;;;;;;;;;;;;;;;;;;;
2023/01/28 07:08:01;;;;;;;;;;;;;;;;;;4937609;29;19933;-92
2023/01/28 07:10:27;;;;;;;;;;;;;;;;;;4938563;29;19929;-93
2023/01/28 07:12:59;;;;;;;;;;;;;;;;;;4922241;29;19922;-92
2023/01/28 07:15:25;;;;;;;;;;;;;;;;;;4940487;29;19938;-92
2023/01/28 07:17:53;;;;;;;;;;;;;;;;;;4941306;29;19985;-92
2023/01/28 07:20:19;;;;;;;;;;;;;;;;;;4925353;29;20375;-92
2023/01/28 07:22:45;;;;;;;;;;;;;;;;;;4941716;29;19922;-94
2023/01/28 07:25:11;;;;;;;;;;;;;;;;;;4925208;29;20129;-94
2023/01/28 07:27:37;;;;;;;;;;;;;;;;;;4925064;29;19926;-94
2023/01/28 07:30:03;;;;;;;;;;;;;;;;;;4941348;29;20290;-93
2023/01/28 07:32:32;;;;;;;;;;;;;;;;;;4925686;29;19922;-94
2023/01/28 07:35:14;;;;;;;;;;;;;;;;;;;;;
2023/01/28 07:49:09;;;;;;;;;;;;;;;;;;4931034;29;19923;-92
2023/01/28 08:00:21;;;;;;;;;;;;;;;;;;;;;
2023/01/28 08:03:52;;;;;;;;;;;;;;;;;;;;;
2023/01/28 08:19:03;;;;;;;;;;;;;;;;;;4959659;28;20283;-94
2023/01/28 08:21:32;;;;;;;;;;;;;;;;;;4945663;29;19978;-94
2023/01/28 08:23:58;;;;;;;;;;;;;;;;;;4928297;29;19932;-90
2023/01/28 08:26:27;;;;;;;;;;;;;;;;;;4939275;29;19966;-91
2023/01/28 08:28:53;;;;;;;;;;;;;;;;;;4939868;29;19923;-92
2023/01/28 08:31:19;;;;;;;;;;;;;;;;;;4939290;29;19977;-91
2023/01/28 08:33:45;;;;;;;;;;;;;;;;;;4940001;29;20294;-93
2023/01/28 08:36:11;;;;;;;;;;;;;;;;;;4923861;29;19949;-91
2023/01/28 08:38:39;;;;;;;;;;;;;;;;;;4923819;29;20259;-91
2023/01/28 08:41:05;;;;;;;;;;;;;;;;;;4939532;29;19929;-91
2023/01/28 08:43:37;;;;;;;;;;;;;;;;;;4939842;29;19942;-94
2023/01/28 08:46:03;;;;;;;;;;;;;;;;;;4923753;29;19922;-90
2023/01/28 08:48:29;;;;;;;;;;;;;;;;;;4939530;29;20010;-90
2023/01/28 08:50:54;;;;;;;;;;;;;;;;;;4923428;29;20021;-90
2023/01/28 08:53:20;;;;;;;;;;;;;;;;;;4939291;29;19930;-91
2023/01/28 08:55:46;;;;;;;;;;;;;;;;;;4939141;29;19986;-90
2023/01/28 08:58:12;;;;;;;;;;;;;;;;;;4920652;29;19957;-91
2023/01/28 09:00:38;;;;;;;;;;;;;;;;;;4939253;29;20013;-91
2023/01/28 09:03:04;;;;;;;;;;;;;;;;;;4919351;29;19942;-92
2023/01/28 09:05:31;;;;;;;;;;;;;;;;;;4937014;29;19961;-90
2023/01/28 09:07:59;;;;;;;;;;;;;;;;;;4922888;29;20400;-91
2023/01/28 09:10:25;;;;;;;;;;;;;;;;;;4922835;29;20377;-90
2023/01/28 09:12:51;;;;;;;;;;;;;;;;;;4939044;29;19930;-89
2023/01/28 09:15:17;;;;;;;;;;;;;;;;;;4922738;29;19945;-91
2023/01/28 09:17:43;;;;;;;;;;;;;;;;;;4938400;29;19931;-91
2023/01/28 09:20:09;;;;;;;;;;;;;;;;;;4938658;29;19922;-88
2023/01/28 09:22:35;;;;;;;;;;;;;;;;;;4904874;29;20022;-90
2023/01/28 09:25:00;;;;;;;;;;;;;;;;;;4904098;29;20017;-90
2023/01/28 09:27:26;;;;;;;;;;;;;;;;;;4919301;29;20071;-90
2023/01/28 09:29:52;;;;;;;;;;;;;;;;;;4919188;29;19926;-91
2023/01/28 09:32:18;;;;;;;;;;;;;;;;;;4904027;29;20387;-92
2023/01/28 09:34:44;;;;;;;;;;;;;;;;;;4919513;29;20326;-91
2023/01/28 09:37:10;;;;;;;;;;;;;;;;;;4919619;29;19969;-90
2023/01/28 09:39:36;;;;;;;;;;;;;;;;;;4903701;29;20295;-91
2023/01/28 09:42:02;;;;;;;;;;;;;;;;;;4919270;29;20290;-91
2023/01/28 09:44:31;;;;;;;;;;;;;;;;;;4919274;29;19962;-93
2023/01/28 09:46:57;;;;;;;;;;;;;;;;;;4904125;29;19930;-91
2023/01/28 09:49:23;;;;;;;;;;;;;;;;;;4903879;29;19969;-91
2023/01/28 09:51:50;;;;;;;;;;;;;;;;;;4904023;29;20290;-90
2023/01/28 09:54:16;;;;;;;;;;;;;;;;;;4904358;29;20327;-92
2023/01/28 09:56:42;;;;;;;;;;;;;;;;;;4920191;29;19923;-91
2023/01/28 09:59:08;;;;;;;;;;;;;;;;;;4903423;29;20327;-91
2023/01/28 10:01:34;;;;;;;;;;;;;;;;;;4902899;29;19946;-89
2023/01/28 10:04:00;;;;;;;;;;;;;;;;;;4902539;29;19922;-89
2023/01/28 10:06:26;;;;;;;;;;;;;;;;;;4918635;29;19926;-89
2023/01/28 10:08:52;;;;;;;;;;;;;;;;;;4919479;29;19984;-92
2023/01/28 10:11:18;;;;;;;;;;;;;;;;;;4919458;29;19926;-92
2023/01/28 10:13:44;;;;;;;;;;;;;;;;;;4919010;29;19923;-91
2023/01/28 10:16:10;;;;;;;;;;;;;;;;;;4918982;29;19923;-91
2023/01/28 10:18:36;;;;;;;;;;;;;;;;;;4918969;29;20371;-92
2023/01/28 10:21:02;;;;;;;;;;;;;;;;;;4918828;29;19930;-92
2023/01/28 10:23:28;;;;;;;;;;;;;;;;;;4918911;29;19934;-92
2023/01/28 10:25:54;;;;;;;;;;;;;;;;;;4919073;29;19923;-92
2023/01/28 10:28:20;;;;;;;;;;;;;;;;;;4919007;29;19926;-91
2023/01/28 10:30:46;;;;;;;;;;;;;;;;;;4918985;29;20031;-93
2023/01/28 10:33:12;;;;;;;;;;;;;;;;;;4919464;29;20021;-93
2023/01/28 10:35:38;;;;;;;;;;;;;;;;;;4919575;29;20351;-93
2023/01/28 10:38:06;;;;;;;;;;;;;;;;;;4919467;29;20385;-92
2023/01/28 10:40:32;;;;;;;;;;;;;;;;;;4918719;29;20371;-91
2023/01/28 10:42:58;;;;;;;;;;;;;;;;;;4920354;29;19926;-92
2023/01/28 10:45:24;;;;;;;;;;;;;;;;;;4920675;29;19960;-92
2023/01/28 10:47:52;;;;;;;;;;;;;;;;;;4919090;29;20006;-92
2023/01/28 10:50:18;;;;;;;;;;;;;;;;;;4922475;29;19977;-93
2023/01/28 10:52:44;;;;;;;;;;;;;;;;;;4922919;29;19923;-92
2023/01/28 10:55:10;;;;;;;;;;;;;;;;;;4922566;29;19929;-93
2023/01/28 10:57:36;;;;;;;;;;;;;;;;;;4922622;29;19930;-91
2023/01/28 11:00:02;;;;;;;;;;;;;;;;;;4922726;29;19923;-90
2023/01/28 11:02:28;;;;;;;;;;;;;;;;;;4922112;29;20396;-91
2023/01/28 11:04:54;;;;;;;;;;;;;;;;;;4922889;29;19933;-91
2023/01/28 11:07:20;;;;;;;;;;;;;;;;;;4941471;29;19927;-90
2023/01/28 11:09:46;;;;;;;;;;;;;;;;;;4925598;29;19929;-91
2023/01/28 11:12:12;;;;;;;;;;;;;;;;;;4924853;29;19923;-89
2023/01/28 11:14:38;;;;;;;;;;;;;;;;;;4924736;29;20018;-93
2023/01/28 11:17:23;;;;;;;;;;;;;;;;;;;;;
2023/01/28 11:19:51;;;;;;;;;;;;;;;;;;4942011;29;19922;-90
2023/01/28 11:22:27;;;;;;;;;;;;;;;;;;;;;
2023/01/28 11:24:56;;;;;;;;;;;;;;;;;;4941779;29;20017;-91
2023/01/28 11:27:22;;;;;;;;;;;;;;;;;;4925018;29;20017;-93
2023/01/28 11:29:48;;;;;;;;;;;;;;;;;;4941356;29;20344;-93
2023/01/28 11:32:14;;;;;;;;;;;;;;;;;;4925262;29;19922;-92
2023/01/28 11:34:42;;;;;;;;;;;;;;;;;;4925410;29;19922;-91
2023/01/28 11:37:08;;;;;;;;;;;;;;;;;;4925638;29;19918;-88
2023/01/28 11:43:05;;;;;;;;;;;;;;;;;;;;;
2023/01/28 12:00:39;;;;;;;;;;;;;;;;;;4902879;29;19932;-94
2023/01/28 12:03:07;;;;;;;;;;;;;;;;;;4903397;29;19974;-93
2023/01/28 12:08:33;;;;;;;;;;;;;;;;;;4916975;29;19938;-93
2023/01/28 12:10:59;;;;;;;;;;;;;;;;;;4917857;29;19923;-93
2023/01/28 12:13:25;;;;;;;;;;;;;;;;;;4918384;29;20018;-91
2023/01/28 12:15:51;;;;;;;;;;;;;;;;;;4917503;29;19923;-91
2023/01/28 12:18:19;;;;;;;;;;;;;;;;;;4917859;29;19923;-92
2023/01/28 12:20:45;;;;;;;;;;;;;;;;;;4917632;29;19927;-92
2023/01/28 12:23:11;;;;;;;;;;;;;;;;;;4917764;29;20268;-92
2023/01/28 12:25:37;;;;;;;;;;;;;;;;;;4918415;29;19923;-92
2023/01/28 12:28:03;;;;;;;;;;;;;;;;;;4917175;29;20406;-91
2023/01/28 12:30:29;;;;;;;;;;;;;;;;;;4917668;29;20434;-92
2023/01/28 12:32:55;;;;;;;;;;;;;;;;;;4917609;29;19923;-93
2023/01/28 12:35:21;;;;;;;;;;;;;;;;;;4917760;29;19966;-92
2023/01/28 12:37:47;;;;;;;;;;;;;;;;;;4917428;29;19927;-92
2023/01/28 12:40:29;;;;;;;;;;;;;;;;;;4917691;29;20304;-94
2023/01/28 12:42:56;;;;;;;;;;;;;;;;;;4919907;29;20004;-93
2023/01/28 12:45:22;;;;;;;;;;;;;;;;;;4928465;29;19911;-92
2023/01/28 12:47:53;;;;;;;;;;;;;;;;;;4919592;29;19927;-92
2023/01/28 12:59:40;;;;;;;;;;;;;;;;;;5602641;23;19933;-96
2023/01/28 13:16:16;;;;;;;;;;;;;;;;;;5688767;23;19926;-92
2023/01/28 13:18:42;;;;;;;;;;;;;;;;;;4922795;29;19941;-92
2023/01/28 13:21:08;;;;;;;;;;;;;;;;;;4922432;29;19963;-91
2023/01/28 13:23:34;;;;;;;;;;;;;;;;;;4922518;29;19923;-91
2023/01/28 13:26:03;;;;;;;;;;;;;;;;;;4922487;29;19974;-92
2023/01/28 13:28:29;;;;;;;;;;;;;;;;;;4922616;29;19961;-91
2023/01/28 13:30:55;;;;;;;;;;;;;;;;;;4922531;29;19946;-91
2023/01/28 13:33:21;;;;;;;;;;;;;;;;;;4922220;29;19938;-91
2023/01/28 13:35:47;;;;;;;;;;;;;;;;;;4922759;29;19985;-91
2023/01/28 13:41:21;;;;;;;;;;;;;;;;;;;;;
2023/01/28 13:43:50;;;;;;;;;;;;;;;;;;4938275;29;20441;-92
2023/01/28 13:46:23;;;;;;;;;;;;;;;;;;4922239;29;19930;-93
2023/01/28 13:48:50;;;;;;;;;;;;;;;;;;4922740;29;20022;-91
2023/01/28 13:51:24;;;;;;;;;;;;;;;;;;4923395;29;20346;-93
2023/01/28 13:53:50;;;;;;;;;;;;;;;;;;4922444;29;19979;-89
2023/01/28 13:56:16;;;;;;;;;;;;;;;;;;4922517;29;20398;-90
2023/01/28 13:58:42;;;;;;;;;;;;;;;;;;4921857;29;19930;-90
2023/01/28 14:01:08;;;;;;;;;;;;;;;;;;4922146;29;19922;-92
2023/01/28 14:03:34;;;;;;;;;;;;;;;;;;4937759;29;19953;-92
2023/01/28 14:06:01;;;;;;;;;;;;;;;;;;4922037;29;20022;-90
2023/01/28 14:08:27;;;;;;;;;;;;;;;;;;4938054;29;20409;-90
2023/01/28 14:10:53;;;;;;;;;;;;;;;;;;4922030;29;19988;-90
2023/01/28 14:13:19;;;;;;;;;;;;;;;;;;4937793;29;19977;-90
2023/01/28 14:15:45;;;;;;;;;;;;;;;;;;4937643;29;19927;-91
2023/01/28 14:18:11;;;;;;;;;;;;;;;;;;4937738;29;19929;-91
2023/01/28 14:20:38;;;;;;;;;;;;;;;;;;4937631;29;19922;-91
2023/01/28 14:23:04;;;;;;;;;;;;;;;;;;4921397;29;19933;-91
2023/01/28 14:25:30;;;;;;;;;;;;;;;;;;4921687;29;19923;-90
2023/01/28 14:27:56;;;;;;;;;;;;;;;;;;4921428;29;19926;-93
2023/01/28 14:30:23;;;;;;;;;;;;;;;;;;4921709;29;19922;-90
2023/01/28 14:32:49;;;;;;;;;;;;;;;;;;4937836;29;19973;-91
2023/01/28 14:35:15;;;;;;;;;;;;;;;;;;4937252;29;19923;-91
2023/01/28 14:37:40;;;;;;;;;;;;;;;;;;4921525;29;19923;-91
2023/01/28 14:40:06;;;;;;;;;;;;;;;;;;4937482;29;20294;-91
2023/01/28 14:42:32;;;;;;;;;;;;;;;;;;4921468;29;20305;-91
2023/01/28 14:44:58;;;;;;;;;;;;;;;;;;4937934;29;20395;-89
2023/01/28 14:47:24;;;;;;;;;;;;;;;;;;4937311;28;19934;-90
2023/01/28 14:49:50;;;;;;;;;;;;;;;;;;4937223;29;20301;-91
2023/01/28 14:52:16;;;;;;;;;;;;;;;;;;4937405;29;20247;-90
2023/01/28 14:54:42;;;;;;;;;;;;;;;;;;4937649;29;19929;-91
2023/01/28 14:57:09;;;;;;;;;;;;;;;;;;4937076;29;20009;-90
2023/01/28 14:59:35;;;;;;;;;;;;;;;;;;4936961;29;19923;-90
2023/01/28 15:02:01;;;;;;;;;;;;;;;;;;4936903;29;19933;-91
2023/01/28 15:04:27;;;;;;;;;;;;;;;;;;4937097;29;19929;-90
2023/01/28 15:06:53;;;;;;;;;;;;;;;;;;4936847;29;19926;-91
2023/01/28 15:09:19;;;;;;;;;;;;;;;;;;4937100;29;19938;-91
2023/01/28 15:11:45;;;;;;;;;;;;;;;;;;4921455;29;20010;-90
2023/01/28 15:14:11;;;;;;;;;;;;;;;;;;4936942;29;19923;-91
2023/01/28 15:16:37;;;;;;;;;;;;;;;;;;4921133;29;19934;-91
2023/01/28 15:19:03;;;;;;;;;;;;;;;;;;4937205;29;20382;-91
2023/01/28 15:21:29;;;;;;;;;;;;;;;;;;4936864;29;20323;-91
2023/01/28 15:23:55;;;;;;;;;;;;;;;;;;4921562;29;20459;-91
2023/01/28 15:26:21;;;;;;;;;;;;;;;;;;4920944;29;19985;-91
2023/01/28 15:28:47;;;;;;;;;;;;;;;;;;4920939;29;19929;-91
2023/01/28 15:31:13;;;;;;;;;;;;;;;;;;4921505;29;20322;-91
2023/01/28 15:33:39;;;;;;;;;;;;;;;;;;4921281;29;19973;-91
2023/01/28 15:36:05;;;;;;;;;;;;;;;;;;4923452;29;20377;-90
2023/01/28 15:38:30;;;;;;;;;;;;;;;;;;4924824;29;20369;-91
2023/01/28 15:40:56;;;;;;;;;;;;;;;;;;4924740;29;20124;-91
2023/01/28 15:43:22;;;;;;;;;;;;;;;;;;4940443;29;19969;-91
2023/01/28 15:45:48;;;;;;;;;;;;;;;;;;4924230;29;19946;-91
2023/01/28 15:48:16;;;;;;;;;;;;;;;;;;4939988;29;20473;-91
2023/01/28 15:50:43;;;;;;;;;;;;;;;;;;4940165;29;19930;-91
2023/01/28 15:53:09;;;;;;;;;;;;;;;;;;4924357;29;19986;-91
2023/01/28 15:55:35;;;;;;;;;;;;;;;;;;4940099;29;19926;-90
2023/01/28 15:58:01;;;;;;;;;;;;;;;;;;4923892;29;19922;-90
2023/01/28 16:00:27;;;;;;;;;;;;;;;;;;4923954;29;19929;-91
2023/01/28 16:02:54;;;;;;;;;;;;;;;;;;4924195;29;20083;-91
2023/01/28 16:05:20;;;;;;;;;;;;;;;;;;4924421;29;19922;-90
2023/01/28 16:07:45;;;;;;;;;;;;;;;;;;4923683;29;20390;-91
2023/01/28 16:10:11;;;;;;;;;;;;;;;;;;4939812;29;19974;-91
2023/01/28 16:12:37;;;;;;;;;;;;;;;;;;4939882;29;19923;-91
2023/01/28 16:15:05;;;;;;;;;;;;;;;;;;4939964;29;19969;-91
2023/01/28 16:17:31;;;;;;;;;;;;;;;;;;4939607;28;19977;-91
2023/01/28 16:19:57;;;;;;;;;;;;;;;;;;4923865;29;19922;-92
2023/01/28 16:22:23;;;;;;;;;;;;;;;;;;4940329;29;20311;-91
2023/01/28 16:24:51;;;;;;;;;;;;;;;;;;4923761;29;19930;-91
2023/01/28 16:27:16;;;;;;;;;;;;;;;;;;4923385;28;19927;-91
2023/01/28 16:29:45;;;;;;;;;;;;;;;;;;4923898;29;19929;-91
2023/01/28 16:32:11;;;;;;;;;;;;;;;;;;4939444;29;19922;-91
2023/01/28 16:34:41;;;;;;;;;;;;;;;;;;4939359;29;19922;-91
2023/01/28 16:37:06;;;;;;;;;;;;;;;;;;4939313;29;19922;-91
2023/01/28 16:39:32;;;;;;;;;;;;;;;;;;4939288;29;19946;-91
2023/01/28 16:41:58;;;;;;;;;;;;;;;;;;4923800;29;19922;-90
2023/01/28 16:44:24;;;;;;;;;;;;;;;;;;4923569;29;19930;-91
2023/01/28 16:46:50;;;;;;;;;;;;;;;;;;4938158;29;19927;-91
2023/01/28 16:49:16;;;;;;;;;;;;;;;;;;4923442;29;19927;-91
2023/01/28 16:51:45;;;;;;;;;;;;;;;;;;4939010;29;19923;-91
2023/01/28 16:54:11;;;;;;;;;;;;;;;;;;4939238;29;19977;-91
2023/01/28 16:56:37;;;;;;;;;;;;;;;;;;4939094;29;19923;-91
2023/01/28 16:59:03;;;;;;;;;;;;;;;;;;4923320;29;20327;-91
2023/01/28 17:01:29;;;;;;;;;;;;;;;;;;4939164;29;19930;-91
2023/01/28 17:03:55;;;;;;;;;;;;;;;;;;4939119;29;19922;-91
2023/01/28 17:06:21;;;;;;;;;;;;;;;;;;4922962;29;20321;-92
2023/01/28 17:08:47;;;;;;;;;;;;;;;;;;4938924;29;19923;-91
2023/01/28 17:11:13;;;;;;;;;;;;;;;;;;4938488;29;19926;-91
2023/01/28 17:13:39;;;;;;;;;;;;;;;;;;4938535;29;19968;-91
2023/01/28 17:16:05;;;;;;;;;;;;;;;;;;4938263;29;20263;-91
2023/01/28 17:18:31;;;;;;;;;;;;;;;;;;4922624;29;20392;-91
2023/01/28 17:20:57;;;;;;;;;;;;;;;;;;4922441;29;20013;-91
2023/01/28 17:23:23;;;;;;;;;;;;;;;;;;4938368;29;19927;-91
2023/01/28 17:25:49;;;;;;;;;;;;;;;;;;4923132;29;19934;-91
2023/01/28 17:28:14;;;;;;;;;;;;;;;;;;4922336;29;20409;-91
2023/01/28 17:30:40;;;;;;;;;;;;;;;;;;4938375;29;19989;-90
2023/01/28 17:33:06;;;;;;;;;;;;;;;;;;4938320;29;19945;-91
2023/01/28 17:35:34;;;;;;;;;;;;;;;;;;4937967;29;20453;-92
2023/01/28 17:38:00;;;;;;;;;;;;;;;;;;4922451;29;19929;-91
2023/01/28 17:40:26;;;;;;;;;;;;;;;;;;4922637;29;19961;-91
2023/01/28 17:42:52;;;;;;;;;;;;;;;;;;4938517;29;19937;-90
2023/01/28 17:45:18;;;;;;;;;;;;;;;;;;4922164;29;19945;-90
2023/01/28 17:47:43;;;;;;;;;;;;;;;;;;4922061;29;19931;-91
2023/01/28 17:50:10;;;;;;;;;;;;;;;;;;4938298;29;19922;-90
2023/01/28 17:52:36;;;;;;;;;;;;;;;;;;4922603;29;20014;-91
2023/01/28 17:55:02;;;;;;;;;;;;;;;;;;4922622;29;20040;-91
2023/01/28 17:57:28;;;;;;;;;;;;;;;;;;4937991;28;20018;-91
2023/01/28 17:59:54;;;;;;;;;;;;;;;;;;4921793;29;19986;-91
2023/01/28 18:02:20;;;;;;;;;;;;;;;;;;4937795;29;19944;-91
2023/01/28 18:04:46;;;;;;;;;;;;;;;;;;4937704;29;19989;-90
2023/01/28 18:07:12;;;;;;;;;;;;;;;;;;4937777;28;19927;-91
2023/01/28 18:09:38;;;;;;;;;;;;;;;;;;4937923;29;20014;-91
2023/01/28 18:12:03;;;;;;;;;;;;;;;;;;4921792;29;19984;-92
2023/01/28 18:14:29;;;;;;;;;;;;;;;;;;4921471;29;19977;-90
2023/01/28 18:16:55;;;;;;;;;;;;;;;;;;4921638;29;19930;-90
2023/01/28 18:19:21;;;;;;;;;;;;;;;;;;4937386;29;19977;-91
2023/01/28 18:21:47;;;;;;;;;;;;;;;;;;4937528;29;19929;-90
2023/01/28 18:24:13;;;;;;;;;;;;;;;;;;4921724;29;19974;-90
2023/01/28 18:26:39;;;;;;;;;;;;;;;;;;4937446;29;19985;-91
2023/01/28 18:29:05;;;;;;;;;;;;;;;;;;4937598;29;19922;-91
2023/01/28 18:31:31;;;;;;;;;;;;;;;;;;4937678;29;19944;-91
2023/01/28 18:33:57;;;;;;;;;;;;;;;;;;4937369;29;20057;-91
2023/01/28 18:36:23;;;;;;;;;;;;;;;;;;4921607;29;19923;-92
2023/01/28 18:38:49;;;;;;;;;;;;;;;;;;4937494;29;20398;-90
2023/01/28 18:41:15;;;;;;;;;;;;;;;;;;4937455;29;20009;-91
2023/01/28 18:43:40;;;;;;;;;;;;;;;;;;4937494;29;19970;-91
2023/01/28 18:46:06;;;;;;;;;;;;;;;;;;4937200;29;19973;-91
2023/01/28 18:48:32;;;;;;;;;;;;;;;;;;4937001;29;20017;-89
2023/01/28 18:50:58;;;;;;;;;;;;;;;;;;4921624;29;19922;-90
2023/01/28 18:53:25;;;;;;;;;;;;;;;;;;4937184;29;19923;-91
2023/01/28 18:55:51;;;;;;;;;;;;;;;;;;4937370;29;19922;-90
2023/01/28 18:58:16;;;;;;;;;;;;;;;;;;4921690;29;20270;-90
2023/01/28 19:00:42;;;;;;;;;;;;;;;;;;4921530;29;20418;-91
2023/01/28 19:03:08;;;;;;;;;;;;;;;;;;4921226;29;20426;-90
2023/01/28 19:05:35;;;;;;;;;;;;;;;;;;4921578;29;19923;-90
2023/01/28 19:08:00;;;;;;;;;;;;;;;;;;4921451;29;19949;-90
2023/01/28 19:10:26;;;;;;;;;;;;;;;;;;4922909;29;20456;-90
2023/01/28 19:12:52;;;;;;;;;;;;;;;;;;4940848;29;19997;-90
2023/01/28 19:15:18;;;;;;;;;;;;;;;;;;4924855;29;19923;-90
2023/01/28 19:17:44;;;;;;;;;;;;;;;;;;4924788;29;19989;-89
2023/01/28 19:20:10;;;;;;;;;;;;;;;;;;4924873;29;19949;-91
2023/01/28 19:22:36;;;;;;;;;;;;;;;;;;4925093;29;19923;-91
2023/01/28 19:25:03;;;;;;;;;;;;;;;;;;4941058;29;19922;-91
2023/01/28 19:27:29;;;;;;;;;;;;;;;;;;4940493;28;19926;-91
2023/01/28 19:29:55;;;;;;;;;;;;;;;;;;4940607;29;19923;-91
2023/01/28 19:32:20;;;;;;;;;;;;;;;;;;4940677;29;19922;-90
2023/01/28 19:34:46;;;;;;;;;;;;;;;;;;4924581;29;19923;-90
2023/01/28 19:37:13;;;;;;;;;;;;;;;;;;4940363;28;20053;-91
2023/01/28 19:39:38;;;;;;;;;;;;;;;;;;4924679;29;19922;-90
2023/01/28 19:42:04;;;;;;;;;;;;;;;;;;4940772;29;19930;-91
2023/01/28 19:44:31;;;;;;;;;;;;;;;;;;4940253;29;19923;-91
2023/01/28 19:46:58;;;;;;;;;;;;;;;;;;4940207;29;20060;-90
2023/01/28 19:49:24;;;;;;;;;;;;;;;;;;4940256;29;20002;-91
2023/01/28 19:51:50;;;;;;;;;;;;;;;;;;4924491;29;20105;-90
2023/01/28 19:54:16;;;;;;;;;;;;;;;;;;4924558;29;19980;-91
2023/01/28 19:56:42;;;;;;;;;;;;;;;;;;4924588;29;20355;-91
2023/01/28 19:59:08;;;;;;;;;;;;;;;;;;4924003;29;20275;-91
2023/01/28 20:01:34;;;;;;;;;;;;;;;;;;4940081;29;20001;-90
2023/01/28 20:04:00;;;;;;;;;;;;;;;;;;4940056;29;20271;-90
2023/01/28 20:06:26;;;;;;;;;;;;;;;;;;4923656;29;19930;-91
2023/01/28 20:08:52;;;;;;;;;;;;;;;;;;4939746;29;20382;-90
2023/01/28 20:11:18;;;;;;;;;;;;;;;;;;4939656;29;20029;-91
2023/01/28 20:13:44;;;;;;;;;;;;;;;;;;4940330;29;19923;-90
2023/01/28 20:16:15;;;;;;;;;;;;;;;;;;4926755;29;19934;-95
2023/01/28 20:18:41;;;;;;;;;;;;;;;;;;4924082;29;19923;-92
2023/01/28 20:21:07;;;;;;;;;;;;;;;;;;4923447;29;19922;-92
2023/01/28 20:23:33;;;;;;;;;;;;;;;;;;4922770;29;20029;-90
2023/01/28 20:25:59;;;;;;;;;;;;;;;;;;4923109;29;20391;-90